Arriba, Colorado
Current Conditions -  °F | °C
As of 11:55 AM on Friday 21 Nov 2014 (Local Time) from KLIC Reporting Station
Clear Clear  
Wind Chill: 11°   Ceiling: Unl
Heat Index: 11°   Visibility: 10mi
Dew Point: -7°   Wind: 13mph
Humidity: 27%   Direction: 340°NNW
Pressure: 29.93"   Gusts: NA
Location:  39.29°N, 103.28°W
Report Text: KLIC 211855Z AUTO 34011KT 10SM CLR 11/M07 A2993 RMK AO2 SLP119 T01111072
Loading
Personal Weather Stations






























Interactive Weather Map New forecast layout! Learn more

10-Day Weather Forecast

Advertisements
Track Severe Weather on mobile